NCAR-RAP Real-Time Weather Data

Output produced by METARs form (17 October 2018  15:35 UTC)
found at http://weather.rap.ucar.edu/surface/
 
RORS 171000Z 04008KT 9999 -SHRA SCT018 BKN060 24/22 Q1010
RORS 170900Z 03012KT 9999 FEW015 BKN060 25/21 Q1009
RORS 170800Z 03014KT 9999 FEW016 SCT024 BKN050 25/22 Q1009
RORS 170700Z 02016KT 9999 FEW019 BKN050 25/22 Q1009
RORS 170600Z 02015KT 9999 FEW020 BKN070 25/22 Q1009
RORS 170500Z 03014KT 9999 -SHRA SCT015 BKN060 24/22 Q1010
RORS 170430Z 04012KT 3500 R35/1700D SHRA SCT015 BKN020 BKN040 24/22 Q1010 RMK 3CU015 5CU020 7SC040 A2983
RORS 170400Z 04016KT 9999 -SHRA SCT012 BKN020 24/22 Q1010
RORS 170300Z 04016KT 9999 -SHRA FEW007 SCT010 BKN025 24/23 Q1010
RORS 170238Z 04015KT 6000 R35/1500VP1800N SHRA BR FEW004 SCT010 BKN025 24/23 Q1011 RMK 2ST004 4CU010 6CU025 A2986 3000E-SE
RORS 170216Z 02016KT 7000 R35/P1800N SHRA SCT005 BKN012 BKN030 24/23 Q1011 RMK 3ST005 5CU012 6CU030 A2987 3500NW-N
RORS 170200Z 02016KT 9000 -SHRA SCT005 BKN012 BKN030 24/23 Q1011
RORS 170100Z 01009KT 9999 -SHRA FEW005 SCT010 BKN050 24/22 Q1011
RORS 170021Z 02009KT 7000 -SHRA FEW007 BKN014 FEW020CB BKN050 24/23 Q1011 RMK 2ST007 5CU014 1CB020 7SC050 A2986 CB 20KM N MOV NE
RORS 170000Z 02008KT 3500 TSRA SCT007 BKN014 FEW020CB 23/23 Q1011
RORS 162343Z 01007KT 9000 TSRA FEW008 BKN015 FEW020CB BKN040 24/23 Q1011 RMK 2ST008 5CU015 2CB020 7SC040 A2987 3500NW-N FBL TS OHD AND 15KM W-N MOV E
RORS 162320Z 06004KT 9999 -TSRA FEW008 BKN015 FEW020CB BKN060 24/23 Q1011 RMK 2ST008 5CU015 2CB020 7SC060 A2985 TS 20KM W-NW MOV E
RORS 162300Z 05006KT 9999 -SHRA FEW008 SCT015 FEW020CB BKN060 24/23 Q1010
RORS 162200Z 08004KT 7000 -SHRA FEW008 SCT015 FEW020TCU BKN030 23/23 Q1011
RORS 162139Z 06002KT 2500 R35/1400VP1800U +SHRA FEW006 BKN015 FEW020TCU BKN035 23/23 Q1011 RMK 2ST006 5CU015 2TCU020 7CU035 A2986 TCU 7KM SW-W MOV E
RORS 161015Z 03005KT 360V080 5000 SHRA FEW010 FEW020TCU BKN025 24/22 Q1011 RMK 2CU010 2TCU020 6CU025 A2986 TCU 20KM NE MOV SE
RORS 161000Z 06008KT 3000 R17/1800N +SHRA FEW010 FEW020TCU BKN025 24/22 Q1010
RORS 160900Z 13007KT 9999 -SHRA FEW012 SCT020 BKN080 26/23 Q1010
RORS 160800Z 13003KT 080V160 9999 FEW018 SCT025 BKN080 26/23 Q1010
RORS 160700Z 02005KT 9999 FEW018 SCT050 BKN070 27/23 Q1009
RORS 160600Z 36005KT 9999 SCT018 28/23 Q1009
RORS 160500Z 36007KT 9999 SCT022 27/23 Q1010
RORS 160400Z 01008KT 9999 FEW025 28/23 Q1010
RORS 160300Z 02007KT 9999 SCT018 28/24 Q1011
RORS 160200Z 04005KT 9999 FEW017 28/23 Q1012
RORS 160100Z 03005KT 9999 FEW014 SCT020 27/23 Q1012
RORS 160000Z 07005KT 9999 FEW012 SCT130 27/23 Q1012
RORS 152300Z 05005KT 9999 FEW012 BKN110 25/23 Q1012
RORS 152200Z 07005KT 9999 FEW012 BKN140 24/23 Q1011
RORS 151000Z 04017KT 9999 -SHRA FEW008 SCT010 BKN018 25/23 Q1012
RORS 150900Z 05011KT 9999 VCSH FEW012 BKN050 26/23 Q1012
RORS 150800Z 05013KT 9999 VCSH FEW012 BKN045 26/23 Q1011
RORS 150700Z 06013KT 9999 FEW013 SCT037 BKN050 26/23 Q1011
RORS 150600Z 07014KT 9999 -SHRA FEW010 SCT015 BKN050 28/24 Q1011
RORS 150500Z 05014KT 9999 SCT012 BKN060 27/23 Q1011
RORS 150400Z 05014KT 9999 FEW011 BKN070 27/24 Q1012